Weather Data

Pearl Creek Farm: 8878 N Farm Road 75, Walnut Grove MO 65770

<== Previous Day (Friday 08 Apr 2016) | Next Day (Sunday 10 Apr 2016) ==>

Summary Precipitation Data For Saturday 09 April 2016

ElementValueUnits
Precipitation0"
NotesAny precipitation for this day was included with a multiple-day report on 10 April 2016.
SourcePearl Creek Farm

Summary Temperature Data For Saturday 09 April 2016

ElementValueUnits
High Temperature66 oF
Low Temperature37 oF
Average Temperature52 oF
High Humidity55 %
Low Humidity24 %
Average Humidity36 %
SourceSpringfield-Branson National Airport (SGF)

Detail Temperature Data For Saturday 09 April 2016

Date / TimeTemp (F)RH (%)Dew Pt (F)Report Date / TimeSource
2016-04-09 00:52:00 45 46 25.0 2017-12-29 17:00:26.17417 Springfield-Branson National Airport (SGF)
2016-04-09 01:52:00 40 55 25.0 2017-12-29 17:00:26.17417 Springfield-Branson National Airport (SGF)
2016-04-09 02:52:00 40 51 23.0 2017-12-29 17:00:26.17417 Springfield-Branson National Airport (SGF)
2016-04-09 03:52:00 40 49 22.0 2017-12-29 17:00:26.17417 Springfield-Branson National Airport (SGF)
2016-04-09 04:52:00 38 44 18.0 2017-12-29 17:00:26.17417 Springfield-Branson National Airport (SGF)
2016-04-09 05:52:00 37 42 16.0 2017-12-29 17:00:26.17417 Springfield-Branson National Airport (SGF)
2016-04-09 06:52:00 38 41 16.0 2017-12-29 17:00:26.17417 Springfield-Branson National Airport (SGF)
2016-04-09 07:52:00 40 33 13.0 2017-12-29 17:00:26.17417 Springfield-Branson National Airport (SGF)
2016-04-09 08:52:00 44 30 14.0 2017-12-29 17:00:26.17417 Springfield-Branson National Airport (SGF)
2016-04-09 09:52:00 48 28 16.0 2017-12-29 17:00:26.17417 Springfield-Branson National Airport (SGF)
2016-04-09 10:52:00 51 27 18.0 2017-12-29 17:00:26.17417 Springfield-Branson National Airport (SGF)
2016-04-09 11:52:00 55 25 20.0 2017-12-29 17:00:26.17417 Springfield-Branson National Airport (SGF)
2016-04-09 12:52:00 59 24 22.0 2017-12-29 17:00:26.17417 Springfield-Branson National Airport (SGF)
2016-04-09 13:52:00 62 24 25.0 2017-12-29 17:00:26.17417 Springfield-Branson National Airport (SGF)
2016-04-09 14:52:00 65 26 29.0 2017-12-29 17:00:26.17417 Springfield-Branson National Airport (SGF)
2016-04-09 15:52:00 66 26 30.0 2017-12-29 17:00:26.17417 Springfield-Branson National Airport (SGF)
2016-04-09 16:52:00 65 26 29.0 2017-12-29 17:00:26.17417 Springfield-Branson National Airport (SGF)
2016-04-09 17:52:00 63 29 30.0 2017-12-29 17:00:26.17417 Springfield-Branson National Airport (SGF)
2016-04-09 18:52:00 60 32 30.0 2017-12-29 17:00:26.17417 Springfield-Branson National Airport (SGF)
2016-04-09 19:52:00 60 32 30.0 2017-12-29 17:00:26.17417 Springfield-Branson National Airport (SGF)
2016-04-09 20:52:00 58 35 30.0 2017-12-29 17:00:26.17417 Springfield-Branson National Airport (SGF)
2016-04-09 21:52:00 57 39 32.0 2017-12-29 17:00:26.17417 Springfield-Branson National Airport (SGF)
2016-04-09 22:52:00 55 45 34.0 2017-12-29 17:00:26.17417 Springfield-Branson National Airport (SGF)
2016-04-09 23:52:00 55 49 36.0 2017-12-29 17:00:26.17417 Springfield-Branson National Airport (SGF)

A total of 24 rows are displayed.